Time,TemperatureF,DewpointF,PressureIn,WindDirection,WindDirectionDegrees,WindSpeedMPH,WindSpeedGustMPH,Humidity,HourlyPrecipIn,Conditions,Clouds,dailyrainin,SoftwareType,DateUTC
2014-11-22 00:02:00,34.3,30.2,29.86,SW,225,0.0,0.0,85,0.00,,,0.00,WUHU216HW,2014-11-22 06:02:00,
2014-11-22 00:09:00,34.3,30.2,29.86,SW,225,0.0,0.0,85,0.00,,,0.00,WUHU216HW,2014-11-22 06:09:00,
2014-11-22 00:14:00,34.3,30.2,29.85,SSW,203,0.0,0.0,85,0.00,,,0.00,WUHU216HW,2014-11-22 06:14:00,
2014-11-22 00:19:00,34.3,30.2,29.84,SSW,203,0.0,0.0,85,0.00,,,0.00,WUHU216HW,2014-11-22 06:19:00,
2014-11-22 00:24:00,34.3,30.2,29.84,SW,225,0.0,0.0,85,0.00,,,0.00,WUHU216HW,2014-11-22 06:24:00,
2014-11-22 00:29:00,34.3,30.2,29.84,SSW,203,0.0,0.0,85,0.00,,,0.00,WUHU216HW,2014-11-22 06:29:00,
2014-11-22 00:34:00,34.3,30.2,29.84,SSW,203,0.0,0.0,85,0.00,,,0.00,WUHU216HW,2014-11-22 06:34:00,
2014-11-22 00:39:00,34.3,30.2,29.84,SSW,203,0.0,0.0,85,0.00,,,0.00,WUHU216HW,2014-11-22 06:39:00,
2014-11-22 00:44:00,34.3,30.4,29.84,SSW,203,0.0,0.0,86,0.00,,,0.00,WUHU216HW,2014-11-22 06:44:00,
2014-11-22 00:49:00,34.3,30.4,29.84,SSW,203,0.0,0.0,86,0.00,,,0.00,WUHU216HW,2014-11-22 06:49:00,
2014-11-22 00:54:00,34.3,30.4,29.84,SSW,203,0.0,0.0,86,0.00,,,0.00,WUHU216HW,2014-11-22 06:54:00,
2014-11-22 00:59:00,34.3,30.4,29.84,SSW,203,0.0,0.0,86,0.00,,,0.00,WUHU216HW,2014-11-22 06:59:00,
2014-11-22 01:04:00,34.3,30.4,29.83,SSW,203,0.0,0.0,86,0.00,,,0.00,WUHU216HW,2014-11-22 07:04:00,
2014-11-22 01:09:00,34.3,30.4,29.83,SSW,203,0.0,0.0,86,0.00,,,0.00,WUHU216HW,2014-11-22 07:09:00,
2014-11-22 01:14:00,34.5,30.6,29.83,SSW,203,0.0,0.0,86,0.00,,,0.00,WUHU216HW,2014-11-22 07:14:00,
2014-11-22 01:19:00,34.5,30.6,29.82,SSW,203,0.0,0.0,86,0.00,,,0.00,WUHU216HW,2014-11-22 07:19:00,
2014-11-22 01:24:00,34.7,30.8,29.82,South,180,0.0,0.0,86,0.00,,,0.00,WUHU216HW,2014-11-22 07:24:00,
2014-11-22 01:29:00,34.7,31.1,29.82,SW,225,0.0,0.0,87,0.00,,,0.00,WUHU216HW,2014-11-22 07:29:00,
2014-11-22 01:34:00,34.8,31.3,29.82,SSW,203,0.0,0.0,87,0.00,,,0.00,WUHU216HW,2014-11-22 07:34:00,
2014-11-22 01:39:00,34.8,31.3,29.82,SSW,203,0.0,0.0,87,0.00,,,0.00,WUHU216HW,2014-11-22 07:39:00,
2014-11-22 01:44:00,34.8,31.3,29.82,SW,225,0.0,0.0,87,0.00,,,0.00,WUHU216HW,2014-11-22 07:44:00,
2014-11-22 01:49:00,34.8,31.3,29.81,South,180,0.0,0.0,87,0.00,,,0.00,WUHU216HW,2014-11-22 07:49:00,
2014-11-22 01:54:00,34.8,31.3,29.81,SSW,203,0.0,0.0,87,0.00,,,0.00,WUHU216HW,2014-11-22 07:54:00,
2014-11-22 01:59:00,34.8,31.3,29.81,SSW,203,0.0,0.0,87,0.00,,,0.00,WUHU216HW,2014-11-22 07:59:00,
2014-11-22 02:04:00,34.8,31.3,29.82,SW,225,0.0,0.0,87,0.00,,,0.00,WUHU216HW,2014-11-22 08:04:00,
2014-11-22 02:09:00,34.8,31.3,29.82,WSW,248,0.0,0.0,87,0.00,,,0.00,WUHU216HW,2014-11-22 08:09:00,
2014-11-22 02:14:00,34.8,31.6,29.82,SSW,203,0.0,0.0,88,0.00,,,0.00,WUHU216HW,2014-11-22 08:14:00,
2014-11-22 02:19:00,34.8,31.6,29.82,WSW,248,0.0,0.0,88,0.00,,,0.00,WUHU216HW,2014-11-22 08:19:00,
2014-11-22 02:24:00,34.8,31.6,29.82,SSW,203,0.0,0.0,88,0.00,,,0.00,WUHU216HW,2014-11-22 08:24:00,
2014-11-22 02:29:00,34.8,31.6,29.82,SSW,203,0.0,0.0,88,0.00,,,0.00,WUHU216HW,2014-11-22 08:29:00,
2014-11-22 02:34:00,34.8,31.6,29.82,WSW,248,0.0,0.0,88,0.00,,,0.00,WUHU216HW,2014-11-22 08:34:00,
2014-11-22 02:39:00,34.8,31.6,29.82,SSW,203,0.0,0.0,88,0.00,,,0.00,WUHU216HW,2014-11-22 08:39:00,
2014-11-22 02:44:00,34.8,31.6,29.82,SW,225,0.0,0.0,88,0.00,,,0.00,WUHU216HW,2014-11-22 08:44:00,
2014-11-22 02:49:00,34.8,31.6,29.82,SSW,203,0.0,0.0,88,0.00,,,0.00,WUHU216HW,2014-11-22 08:49:00,
2014-11-22 02:54:00,34.8,31.6,29.82,SSW,203,0.0,0.0,88,0.00,,,0.00,WUHU216HW,2014-11-22 08:54:00,
2014-11-22 02:59:00,34.8,31.6,29.82,SSW,203,0.0,0.0,88,0.00,,,0.00,WUHU216HW,2014-11-22 08:59:00,
2014-11-22 03:04:00,34.8,31.6,29.82,SSW,203,0.0,0.0,88,0.00,,,0.00,WUHU216HW,2014-11-22 09:04:00,
2014-11-22 03:09:00,34.8,31.6,29.81,SW,225,0.0,0.0,88,0.00,,,0.00,WUHU216HW,2014-11-22 09:09:00,
2014-11-22 03:14:00,34.8,31.6,29.81,South,180,0.0,0.0,88,0.00,,,0.00,WUHU216HW,2014-11-22 09:14:00,
2014-11-22 03:18:00,34.8,31.6,29.81,SW,225,0.0,0.0,88,0.00,,,0.00,WUHU216HW,2014-11-22 09:18:00,
2014-11-22 03:23:00,34.8,31.6,29.81,SSW,203,0.0,0.0,88,0.00,,,0.00,WUHU216HW,2014-11-22 09:23:00,
2014-11-22 03:28:00,34.8,31.6,29.81,SW,225,0.0,0.0,88,0.00,,,0.00,WUHU216HW,2014-11-22 09:28:00,
2014-11-22 03:33:00,34.8,31.6,29.80,SSW,203,0.0,0.0,88,0.00,,,0.00,WUHU216HW,2014-11-22 09:33:00,
2014-11-22 03:38:00,34.8,31.6,29.81,SSW,203,0.0,0.0,88,0.00,,,0.00,WUHU216HW,2014-11-22 09:38:00,
2014-11-22 03:43:00,34.8,31.6,29.81,South,180,0.0,0.0,88,0.00,,,0.00,WUHU216HW,2014-11-22 09:43:00,
2014-11-22 03:48:00,34.8,31.6,29.81,SSW,203,0.0,0.0,88,0.00,,,0.00,WUHU216HW,2014-11-22 09:48:00,
2014-11-22 03:53:00,34.8,31.6,29.80,SSW,203,0.0,0.0,88,0.00,,,0.00,WUHU216HW,2014-11-22 09:53:00,
2014-11-22 03:58:00,34.8,31.6,29.80,SSW,203,0.0,0.0,88,0.00,,,0.00,WUHU216HW,2014-11-22 09:58:00,
2014-11-22 04:03:00,34.8,31.6,29.79,SSW,203,0.0,0.0,88,0.00,,,0.00,WUHU216HW,2014-11-22 10:03:00,
2014-11-22 04:08:00,34.8,31.6,29.79,SSW,203,0.0,0.0,88,0.00,,,0.00,WUHU216HW,2014-11-22 10:08:00,
2014-11-22 04:13:00,35.2,31.9,29.79,SSW,203,0.0,0.0,88,0.00,,,0.00,WUHU216HW,2014-11-22 10:13:00,
2014-11-22 04:18:00,35.0,31.7,29.79,SSW,203,0.0,0.0,88,0.00,,,0.00,WUHU216HW,2014-11-22 10:18:00,
2014-11-22 04:23:00,34.8,31.6,29.79,SSW,203,0.0,0.0,88,0.00,,,0.00,WUHU216HW,2014-11-22 10:23:00,
2014-11-22 04:28:00,34.8,31.8,29.79,SW,225,0.0,0.0,89,0.00,,,0.00,WUHU216HW,2014-11-22 10:28:00,
2014-11-22 04:33:00,34.8,31.8,29.79,SSW,203,0.0,0.0,89,0.00,,,0.00,WUHU216HW,2014-11-22 10:33:00,
2014-11-22 04:38:00,34.8,31.8,29.79,SSW,203,0.0,0.0,89,0.00,,,0.00,WUHU216HW,2014-11-22 10:38:00,
2014-11-22 04:43:00,34.8,31.8,29.79,SW,225,0.0,0.0,89,0.00,,,0.00,WUHU216HW,2014-11-22 10:43:00,
2014-11-22 04:48:00,34.8,31.8,29.79,SW,225,0.0,0.0,89,0.00,,,0.00,WUHU216HW,2014-11-22 10:48:00,
2014-11-22 04:53:00,34.8,31.8,29.79,SW,225,0.0,0.0,89,0.00,,,0.00,WUHU216HW,2014-11-22 10:53:00,
2014-11-22 04:58:00,34.8,31.8,29.79,SSW,203,0.0,0.0,89,0.00,,,0.00,WUHU216HW,2014-11-22 10:58:00,
2014-11-22 05:03:00,34.8,31.8,29.79,SSW,203,0.0,0.0,89,0.00,,,0.00,WUHU216HW,2014-11-22 11:03:00,
2014-11-22 05:08:00,34.8,31.8,29.79,SSW,203,0.0,0.0,89,0.00,,,0.00,WUHU216HW,2014-11-22 11:08:00,
2014-11-22 05:13:00,34.8,31.8,29.78,SW,225,0.0,0.0,89,0.00,,,0.00,WUHU216HW,2014-11-22 11:13:00,
2014-11-22 05:18:00,34.8,31.8,29.78,SSW,203,0.0,0.0,89,0.00,,,0.00,WUHU216HW,2014-11-22 11:18:00,
2014-11-22 05:23:00,34.8,31.8,29.78,SW,225,0.0,0.0,89,0.00,,,0.00,WUHU216HW,2014-11-22 11:23:00,
2014-11-22 05:28:00,34.8,31.8,29.78,SSW,203,0.0,0.0,89,0.00,,,0.00,WUHU216HW,2014-11-22 11:28:00,
2014-11-22 05:33:00,34.8,31.8,29.79,SSW,203,0.0,0.0,89,0.00,,,0.00,WUHU216HW,2014-11-22 11:33:00,
2014-11-22 05:38:00,34.8,31.8,29.78,SSW,203,0.0,0.0,89,0.00,,,0.00,WUHU216HW,2014-11-22 11:38:00,
2014-11-22 05:43:00,34.8,31.8,29.78,SSW,203,0.0,0.0,89,0.00,,,0.00,WUHU216HW,2014-11-22 11:43:00,
2014-11-22 05:48:00,34.8,31.8,29.78,SSW,203,0.0,0.0,89,0.00,,,0.00,WUHU216HW,2014-11-22 11:48:00,
2014-11-22 05:53:00,34.8,31.8,29.78,SSW,203,0.0,0.0,89,0.00,,,0.00,WUHU216HW,2014-11-22 11:53:00,
2014-11-22 05:58:00,34.8,31.8,29.77,SW,225,0.0,0.0,89,0.00,,,0.00,WUHU216HW,2014-11-22 11:58:00,
2014-11-22 06:03:00,34.7,31.7,29.77,WSW,248,0.0,0.0,89,0.00,,,0.00,WUHU216HW,2014-11-22 12:03:00,
2014-11-22 06:08:00,34.7,31.7,29.77,SSW,203,0.0,0.0,89,0.00,,,0.00,WUHU216HW,2014-11-22 12:08:00,
2014-11-22 06:13:00,34.7,31.7,29.77,SW,225,0.0,0.0,89,0.00,,,0.00,WUHU216HW,2014-11-22 12:13:00,
2014-11-22 06:18:00,34.7,31.7,29.77,WSW,248,0.0,0.0,89,0.00,,,0.00,WUHU216HW,2014-11-22 12:18:00,
2014-11-22 06:23:00,34.7,31.7,29.77,SSW,203,0.0,0.0,89,0.00,,,0.00,WUHU216HW,2014-11-22 12:23:00,
2014-11-22 06:28:00,34.7,31.7,29.77,SSW,203,0.0,0.0,89,0.00,,,0.00,WUHU216HW,2014-11-22 12:28:00,
2014-11-22 06:33:00,34.5,31.5,29.77,WSW,248,0.0,0.0,89,0.00,,,0.00,WUHU216HW,2014-11-22 12:33:00,
2014-11-22 06:38:00,34.5,31.5,29.77,SSW,203,0.0,0.0,89,0.00,,,0.00,WUHU216HW,2014-11-22 12:38:00,
2014-11-22 06:43:00,34.5,31.5,29.77,SSW,203,0.0,0.0,89,0.00,,,0.00,WUHU216HW,2014-11-22 12:43:00,
2014-11-22 06:48:00,34.5,31.8,29.77,SW,225,0.0,0.0,90,0.00,,,0.00,WUHU216HW,2014-11-22 12:48:00,
2014-11-22 06:53:00,34.5,31.8,29.77,SW,225,0.0,0.0,90,0.00,,,0.00,WUHU216HW,2014-11-22 12:53:00,
2014-11-22 06:58:00,34.3,31.6,29.76,SSW,203,0.0,0.0,90,0.00,,,0.00,WUHU216HW,2014-11-22 12:58:00,
2014-11-22 07:03:00,34.3,31.6,29.76,SW,225,0.0,0.0,90,0.00,,,0.00,WUHU216HW,2014-11-22 13:03:00,
2014-11-22 07:08:00,34.3,31.6,29.76,SSW,203,0.0,0.0,90,0.00,,,0.00,WUHU216HW,2014-11-22 13:08:00,
2014-11-22 07:13:00,34.3,31.6,29.76,SW,225,0.0,0.0,90,0.00,,,0.00,WUHU216HW,2014-11-22 13:13:00,
2014-11-22 07:18:00,34.3,31.6,29.76,SW,225,0.0,0.0,90,0.00,,,0.00,WUHU216HW,2014-11-22 13:18:00,
2014-11-22 07:23:00,34.3,31.6,29.76,South,180,0.0,0.0,90,0.00,,,0.00,WUHU216HW,2014-11-22 13:23:00,
2014-11-22 07:28:00,34.3,31.6,29.76,SSW,203,0.0,0.0,90,0.00,,,0.00,WUHU216HW,2014-11-22 13:28:00,
2014-11-22 07:33:00,34.3,31.6,29.76,South,180,0.0,0.0,90,0.00,,,0.00,WUHU216HW,2014-11-22 13:33:00,
2014-11-22 07:38:00,34.3,31.6,29.76,SSW,203,0.0,0.0,90,0.00,,,0.00,WUHU216HW,2014-11-22 13:38:00,
2014-11-22 07:43:00,34.3,31.6,29.76,WSW,248,0.0,0.0,90,0.00,,,0.00,WUHU216HW,2014-11-22 13:43:00,
2014-11-22 07:48:00,34.3,31.6,29.76,SSW,203,0.0,0.0,90,0.00,,,0.00,WUHU216HW,2014-11-22 13:48:00,
2014-11-22 07:53:00,34.5,31.8,29.76,South,180,0.0,0.0,90,0.00,,,0.00,WUHU216HW,2014-11-22 13:53:00,
2014-11-22 07:58:00,34.3,31.6,29.76,SSW,203,0.0,0.0,90,0.00,,,0.00,WUHU216HW,2014-11-22 13:58:00,
2014-11-22 08:03:00,34.3,31.6,29.76,South,180,0.0,0.0,90,0.00,,,0.00,WUHU216HW,2014-11-22 14:03:00,
2014-11-22 08:08:00,34.3,31.6,29.76,SSW,203,0.0,0.0,90,0.00,,,0.00,WUHU216HW,2014-11-22 14:08:00,
2014-11-22 08:13:00,34.5,31.8,29.76,SSW,203,0.0,0.0,90,0.00,,,0.00,WUHU216HW,2014-11-22 14:13:00,
2014-11-22 08:18:00,34.5,31.8,29.76,SW,225,0.0,0.0,90,0.00,,,0.00,WUHU216HW,2014-11-22 14:18:00,
2014-11-22 08:23:00,34.7,32.0,29.76,SSW,203,0.0,0.0,90,0.00,,,0.00,WUHU216HW,2014-11-22 14:23:00,
2014-11-22 08:28:00,34.7,32.0,29.76,SSW,203,0.0,0.0,90,0.00,,,0.00,WUHU216HW,2014-11-22 14:28:00,
2014-11-22 08:33:00,34.8,32.1,29.76,South,180,0.0,0.0,90,0.00,,,0.00,WUHU216HW,2014-11-22 14:33:00,
2014-11-22 08:38:00,34.8,32.1,29.76,South,180,0.0,0.0,90,0.00,,,0.00,WUHU216HW,2014-11-22 14:38:00,
2014-11-22 08:43:00,34.8,32.1,29.75,SSW,203,0.0,0.0,90,0.00,,,0.00,WUHU216HW,2014-11-22 14:43:00,
2014-11-22 08:48:00,34.8,32.1,29.75,SSW,203,0.0,0.0,90,0.00,,,0.00,WUHU216HW,2014-11-22 14:48:00,
2014-11-22 08:53:00,35.0,32.3,29.75,SSW,203,0.0,0.0,90,0.00,,,0.00,WUHU216HW,2014-11-22 14:53:00,
2014-11-22 08:58:00,35.2,32.5,29.75,SSW,203,0.0,0.0,90,0.00,,,0.00,WUHU216HW,2014-11-22 14:58:00,
2014-11-22 09:02:00,34.8,32.1,29.75,SSW,203,0.0,0.0,90,0.00,,,0.00,WUHU216HW,2014-11-22 15:02:00,
2014-11-22 09:07:00,35.2,32.5,29.74,South,180,0.0,0.0,90,0.00,,,0.00,WUHU216HW,2014-11-22 15:07:00,
2014-11-22 09:12:00,35.2,32.5,29.74,SSW,203,0.0,0.0,90,0.00,,,0.00,WUHU216HW,2014-11-22 15:12:00,
2014-11-22 09:17:00,35.2,32.5,29.74,SSW,203,0.0,0.0,90,0.00,,,0.00,WUHU216HW,2014-11-22 15:17:00,
2014-11-22 09:22:00,35.2,32.5,29.74,SSW,203,0.0,0.0,90,0.00,,,0.00,WUHU216HW,2014-11-22 15:22:00,
2014-11-22 09:27:00,35.2,32.5,29.74,SSW,203,0.0,0.0,90,0.00,,,0.00,WUHU216HW,2014-11-22 15:27:00,
2014-11-22 09:32:00,35.2,32.5,29.74,SSW,203,0.0,0.0,90,0.00,,,0.00,WUHU216HW,2014-11-22 15:32:00,
2014-11-22 09:37:00,35.4,32.7,29.74,SSW,203,0.0,0.0,90,0.00,,,0.00,WUHU216HW,2014-11-22 15:37:00,
2014-11-22 09:42:00,35.4,32.7,29.74,SSW,203,0.0,0.0,90,0.00,,,0.00,WUHU216HW,2014-11-22 15:42:00,
2014-11-22 09:47:00,35.4,32.7,29.74,SW,225,0.0,0.0,90,0.00,,,0.00,WUHU216HW,2014-11-22 15:47:00,
2014-11-22 09:52:00,35.6,32.9,29.74,SSW,203,0.0,0.0,90,0.00,,,0.00,WUHU216HW,2014-11-22 15:52:00,
2014-11-22 09:57:00,35.4,32.7,29.74,SSW,203,0.0,0.0,90,0.00,,,0.00,WUHU216HW,2014-11-22 15:57:00,
2014-11-22 10:02:00,35.7,33.0,29.73,SSW,203,0.0,0.0,90,0.00,,,0.00,WUHU216HW,2014-11-22 16:02:00,
2014-11-22 10:07:00,35.9,33.2,29.74,SSW,203,0.0,0.0,90,0.00,,,0.00,WUHU216HW,2014-11-22 16:07:00,
2014-11-22 10:12:00,35.9,33.2,29.73,SSW,203,0.0,0.0,90,0.00,,,0.00,WUHU216HW,2014-11-22 16:12:00,
2014-11-22 10:17:00,35.9,33.2,29.73,South,180,0.0,0.0,90,0.00,,,0.00,WUHU216HW,2014-11-22 16:17:00,
2014-11-22 10:22:00,35.9,33.2,29.73,SW,225,0.0,0.0,90,0.00,,,0.00,WUHU216HW,2014-11-22 16:22:00,
2014-11-22 10:27:00,36.1,33.4,29.73,South,180,0.0,0.0,90,0.00,,,0.00,WUHU216HW,2014-11-22 16:27:00,
2014-11-22 10:32:00,36.1,33.4,29.73,SSW,203,0.0,0.0,90,0.00,,,0.00,WUHU216HW,2014-11-22 16:32:00,
2014-11-22 10:37:00,36.1,33.4,29.72,SW,225,0.0,0.0,90,0.00,,,0.00,WUHU216HW,2014-11-22 16:37:00,
2014-11-22 10:42:00,36.3,33.6,29.72,SW,225,0.0,0.0,90,0.00,,,0.00,WUHU216HW,2014-11-22 16:42:00,
2014-11-22 10:47:00,36.3,33.6,29.73,SSW,203,0.0,0.0,90,0.00,,,0.00,WUHU216HW,2014-11-22 16:47:00,
2014-11-22 10:52:00,36.3,33.6,29.73,SSW,203,0.0,0.0,90,0.00,,,0.00,WUHU216HW,2014-11-22 16:52:00,
2014-11-22 10:57:00,36.3,33.6,29.73,SSW,203,0.0,0.0,90,0.00,,,0.00,WUHU216HW,2014-11-22 16:57:00,
2014-11-22 11:02:00,36.3,33.6,29.72,SSW,203,0.0,0.0,90,0.00,,,0.00,WUHU216HW,2014-11-22 17:02:00,
2014-11-22 11:07:00,36.3,33.6,29.71,SSW,203,0.0,0.0,90,0.00,,,0.00,WUHU216HW,2014-11-22 17:07:00,
2014-11-22 11:12:00,36.3,33.6,29.72,SSW,203,0.0,0.0,90,0.00,,,0.00,WUHU216HW,2014-11-22 17:12:00,
2014-11-22 11:17:00,36.3,33.6,29.71,SSW,203,0.0,0.0,90,0.00,,,0.00,WUHU216HW,2014-11-22 17:17:00,
2014-11-22 11:22:00,36.3,33.6,29.71,SSW,203,0.0,0.0,90,0.00,,,0.00,WUHU216HW,2014-11-22 17:22:00,
2014-11-22 11:27:00,36.5,33.8,29.71,SSW,203,0.0,0.0,90,0.00,,,0.00,WUHU216HW,2014-11-22 17:27:00,
2014-11-22 11:32:00,36.6,33.9,29.70,SSW,203,0.0,0.0,90,0.00,,,0.00,WUHU216HW,2014-11-22 17:32:00,
2014-11-22 11:37:00,36.6,33.9,29.70,SSW,203,0.0,0.0,90,0.00,,,0.00,WUHU216HW,2014-11-22 17:37:00,
2014-11-22 11:42:00,36.8,34.1,29.70,SSW,203,0.0,0.0,90,0.00,,,0.00,WUHU216HW,2014-11-22 17:42:00,
2014-11-22 11:47:00,36.8,34.1,29.70,SSW,203,0.0,0.0,90,0.00,,,0.00,WUHU216HW,2014-11-22 17:47:00,
2014-11-22 11:52:00,37.0,34.3,29.70,SSW,203,0.0,0.0,90,0.00,,,0.00,WUHU216HW,2014-11-22 17:52:00,
2014-11-22 11:57:00,37.0,34.3,29.70,SW,225,0.0,0.0,90,0.00,,,0.00,WUHU216HW,2014-11-22 17:57:00,
2014-11-22 12:02:00,37.0,34.3,29.69,SE,135,0.0,0.0,90,0.00,,,0.00,WUHU216HW,2014-11-22 18:02:00,
2014-11-22 12:07:00,37.0,34.3,29.69,SSW,203,0.0,0.0,90,0.00,,,0.00,WUHU216HW,2014-11-22 18:07:00,
2014-11-22 12:12:00,37.0,34.3,29.69,South,180,0.0,0.0,90,0.00,,,0.00,WUHU216HW,2014-11-22 18:12:00,
2014-11-22 12:17:00,37.0,34.3,29.69,SSW,203,0.0,0.0,90,0.00,,,0.00,WUHU216HW,2014-11-22 18:17:00,
2014-11-22 12:22:00,37.2,34.5,29.69,SSW,203,0.0,0.0,90,0.00,,,0.00,WUHU216HW,2014-11-22 18:22:00,
2014-11-22 12:27:00,37.2,34.2,29.69,SSW,203,0.0,0.0,89,0.00,,,0.00,WUHU216HW,2014-11-22 18:27:00,
2014-11-22 12:32:00,37.2,34.2,29.69,SSW,203,0.0,0.0,89,0.00,,,0.00,WUHU216HW,2014-11-22 18:32:00,
2014-11-22 12:37:00,37.0,34.0,29.68,South,180,0.0,0.0,89,0.00,,,0.00,WUHU216HW,2014-11-22 18:37:00,
2014-11-22 12:42:00,37.0,34.0,29.68,South,180,0.0,0.0,89,0.00,,,0.00,WUHU216HW,2014-11-22 18:42:00,
2014-11-22 12:47:00,37.0,34.0,29.68,South,180,0.0,0.0,89,0.00,,,0.00,WUHU216HW,2014-11-22 18:47:00,
2014-11-22 12:52:00,37.0,34.0,29.68,SSW,203,0.0,0.0,89,0.00,,,0.00,WUHU216HW,2014-11-22 18:52:00,
2014-11-22 12:57:00,37.0,34.0,29.68,SSW,203,0.0,0.0,89,0.00,,,0.00,WUHU216HW,2014-11-22 18:57:00,
2014-11-22 13:02:00,37.0,34.0,29.67,South,180,0.0,0.0,89,0.00,,,0.00,WUHU216HW,2014-11-22 19:02:00,
2014-11-22 13:07:00,37.0,34.0,29.67,South,180,0.0,0.0,89,0.00,,,0.00,WUHU216HW,2014-11-22 19:07:00,
2014-11-22 13:12:00,37.0,34.0,29.67,SSW,203,0.0,0.0,89,0.00,,,0.00,WUHU216HW,2014-11-22 19:12:00,
2014-11-22 13:17:00,36.8,33.8,29.67,SSW,203,0.0,0.0,89,0.00,,,0.00,WUHU216HW,2014-11-22 19:17:00,
2014-11-22 13:22:00,36.8,33.8,29.66,SSE,158,0.0,0.0,89,0.00,,,0.00,WUHU216HW,2014-11-22 19:22:00,
2014-11-22 13:27:00,36.8,33.8,29.67,SSW,203,0.0,0.0,89,0.00,,,0.00,WUHU216HW,2014-11-22 19:27:00,
2014-11-22 13:32:00,36.6,33.6,29.66,South,180,0.0,0.0,89,0.00,,,0.00,WUHU216HW,2014-11-22 19:32:00,
2014-11-22 13:37:00,36.8,33.8,29.66,South,180,0.0,0.0,89,0.00,,,0.00,WUHU216HW,2014-11-22 19:37:00,
2014-11-22 13:42:00,36.8,33.8,29.66,South,180,0.0,0.0,89,0.00,,,0.00,WUHU216HW,2014-11-22 19:42:00,
2014-11-22 13:47:00,36.8,33.8,29.66,South,180,0.0,0.0,89,0.00,,,0.00,WUHU216HW,2014-11-22 19:47:00,
2014-11-22 13:52:00,36.8,33.8,29.66,SSW,203,0.0,0.0,89,0.00,,,0.00,WUHU216HW,2014-11-22 19:52:00,
2014-11-22 13:57:00,36.8,33.8,29.66,SSW,203,0.0,0.0,89,0.00,,,0.00,WUHU216HW,2014-11-22 19:57:00,
2014-11-22 14:02:00,36.6,33.4,29.66,SSE,158,0.0,0.0,88,0.00,,,0.00,WUHU216HW,2014-11-22 20:02:00,
2014-11-22 14:07:00,36.6,33.4,29.66,South,180,0.0,0.0,88,0.00,,,0.00,WUHU216HW,2014-11-22 20:07:00,
2014-11-22 14:12:00,36.5,33.2,29.66,SSE,158,0.0,0.0,88,0.00,,,0.00,WUHU216HW,2014-11-22 20:12:00,
2014-11-22 14:17:00,36.5,33.2,29.66,SSE,158,0.0,0.0,88,0.00,,,0.00,WUHU216HW,2014-11-22 20:17:00,
2014-11-22 14:22:00,36.3,33.0,29.65,SSE,158,0.0,0.0,88,0.00,,,0.00,WUHU216HW,2014-11-22 20:22:00,
2014-11-22 14:26:00,36.3,33.0,29.65,SSE,158,0.0,0.0,88,0.00,,,0.00,WUHU216HW,2014-11-22 20:26:00,
2014-11-22 14:31:00,36.1,32.8,29.65,South,180,0.0,0.0,88,0.00,,,0.00,WUHU216HW,2014-11-22 20:31:00,
2014-11-22 14:36:00,36.1,32.8,29.65,SSE,158,0.0,0.0,88,0.00,,,0.00,WUHU216HW,2014-11-22 20:36:00,
2014-11-22 14:41:00,36.1,32.8,29.65,South,180,0.0,0.0,88,0.00,,,0.00,WUHU216HW,2014-11-22 20:41:00,
2014-11-22 14:46:00,35.9,32.6,29.65,SSW,203,0.0,0.0,88,0.00,,,0.00,WUHU216HW,2014-11-22 20:46:00,
2014-11-22 14:51:00,35.9,32.6,29.66,South,180,0.0,0.0,88,0.00,,,0.00,WUHU216HW,2014-11-22 20:51:00,
2014-11-22 14:56:00,35.7,32.5,29.65,SSE,158,0.0,0.0,88,0.00,,,0.00,WUHU216HW,2014-11-22 20:56:00,
2014-11-22 15:01:00,35.7,32.5,29.65,SSW,203,0.0,0.0,88,0.00,,,0.00,WUHU216HW,2014-11-22 21:01:00,
2014-11-22 15:06:00,35.7,32.5,29.65,South,180,0.0,0.0,88,0.00,,,0.00,WUHU216HW,2014-11-22 21:06:00,
2014-11-22 15:11:00,35.7,32.5,29.65,SSE,158,0.0,0.0,88,0.00,,,0.00,WUHU216HW,2014-11-22 21:11:00,
2014-11-22 15:16:00,35.7,32.7,29.65,South,180,0.0,0.0,89,0.00,,,0.00,WUHU216HW,2014-11-22 21:16:00,
2014-11-22 15:22:00,35.7,32.7,29.65,SSW,203,0.0,0.0,89,0.00,,,0.00,WUHU216HW,2014-11-22 21:22:00,
2014-11-22 15:27:00,35.7,32.7,29.65,SSW,203,0.0,0.0,89,0.00,,,0.00,WUHU216HW,2014-11-22 21:27:00,
2014-11-22 15:31:00,35.7,32.7,29.65,SSE,158,0.0,0.0,89,0.00,,,0.00,WUHU216HW,2014-11-22 21:31:00,
2014-11-22 15:36:00,35.7,32.7,29.65,South,180,0.0,0.0,89,0.00,,,0.00,WUHU216HW,2014-11-22 21:36:00,
2014-11-22 15:41:00,35.4,32.4,29.65,South,180,0.0,0.0,89,0.00,,,0.00,WUHU216HW,2014-11-22 21:41:00,
2014-11-22 15:46:00,35.6,32.6,29.65,SSE,158,0.0,0.0,89,0.00,,,0.00,WUHU216HW,2014-11-22 21:46:00,
2014-11-22 15:52:00,35.4,32.4,29.64,SSE,158,0.0,0.0,89,0.00,,,0.00,WUHU216HW,2014-11-22 21:52:00,
2014-11-22 15:57:00,35.4,32.4,29.64,SSE,158,0.0,0.0,89,0.00,,,0.00,WUHU216HW,2014-11-22 21:57:00,
2014-11-22 16:02:00,35.7,32.7,29.64,SSE,158,0.0,0.0,89,0.00,,,0.00,WUHU216HW,2014-11-22 22:02:00,
2014-11-22 16:07:00,35.6,32.6,29.64,South,180,0.0,0.0,89,0.00,,,0.00,WUHU216HW,2014-11-22 22:07:00,
2014-11-22 16:12:00,35.6,32.6,29.64,SSE,158,0.0,0.0,89,0.00,,,0.00,WUHU216HW,2014-11-22 22:12:00,
2014-11-22 16:17:00,35.6,32.6,29.64,SSW,203,0.0,0.0,89,0.00,,,0.00,WUHU216HW,2014-11-22 22:17:00,
2014-11-22 16:22:00,35.6,32.6,29.64,South,180,0.0,0.0,89,0.00,,,0.00,WUHU216HW,2014-11-22 22:22:00,
2014-11-22 16:27:00,35.6,32.6,29.64,SSE,158,0.0,0.0,89,0.00,,,0.00,WUHU216HW,2014-11-22 22:27:00,
2014-11-22 16:32:00,35.7,32.7,29.63,SSE,158,0.0,0.0,89,0.00,,,0.00,WUHU216HW,2014-11-22 22:32:00,
2014-11-22 16:37:00,35.6,32.6,29.62,SE,135,0.0,0.0,89,0.00,,,0.00,WUHU216HW,2014-11-22 22:37:00,
2014-11-22 16:41:00,35.6,32.6,29.62,SSE,158,0.0,0.0,89,0.00,,,0.00,WUHU216HW,2014-11-22 22:41:00,
2014-11-22 16:46:00,35.4,32.4,29.62,SSE,158,0.0,0.0,89,0.00,,,0.00,WUHU216HW,2014-11-22 22:46:00,
2014-11-22 16:51:00,35.4,32.4,29.62,SSE,158,0.0,0.0,89,0.00,,,0.00,WUHU216HW,2014-11-22 22:51:00,
2014-11-22 16:56:00,35.4,32.4,29.62,South,180,0.0,0.0,89,0.00,,,0.00,WUHU216HW,2014-11-22 22:56:00,
2014-11-22 17:01:00,35.4,32.4,29.61,SSE,158,0.0,0.0,89,0.00,,,0.00,WUHU216HW,2014-11-22 23:01:00,
2014-11-22 17:06:00,35.4,32.4,29.61,SSE,158,0.0,0.0,89,0.00,,,0.00,WUHU216HW,2014-11-22 23:06:00,
2014-11-22 17:11:00,35.4,32.4,29.60,SE,135,0.0,0.0,89,0.00,,,0.00,WUHU216HW,2014-11-22 23:11:00,
2014-11-22 17:16:00,35.6,32.9,29.60,South,180,0.0,0.0,90,0.00,,,0.00,WUHU216HW,2014-11-22 23:16:00,
2014-11-22 17:21:00,35.7,33.0,29.60,SSE,158,0.0,0.0,90,0.00,,,0.00,WUHU216HW,2014-11-22 23:21:00,
2014-11-22 17:26:00,35.7,33.0,29.60,SSE,158,0.0,0.0,90,0.00,,,0.00,WUHU216HW,2014-11-22 23:26:00,
2014-11-22 17:31:00,35.7,33.0,29.60,SSE,158,0.0,0.0,90,0.00,,,0.00,WUHU216HW,2014-11-22 23:31:00,
2014-11-22 17:36:00,35.7,33.0,29.59,SE,135,0.0,0.0,90,0.00,,,0.00,WUHU216HW,2014-11-22 23:36:00,
2014-11-22 17:41:00,35.7,33.0,29.60,SSE,158,0.0,0.0,90,0.00,,,0.00,WUHU216HW,2014-11-22 23:41:00,
2014-11-22 17:46:00,35.9,33.2,29.59,SE,135,0.0,0.0,90,0.00,,,0.00,WUHU216HW,2014-11-22 23:46:00,
2014-11-22 17:51:00,35.9,33.2,29.59,SSE,158,0.0,0.0,90,0.00,,,0.00,WUHU216HW,2014-11-22 23:51:00,
2014-11-22 17:56:00,36.1,33.4,29.59,SSE,158,0.0,0.0,90,0.00,,,0.00,WUHU216HW,2014-11-22 23:56:00,
2014-11-22 18:01:00,36.1,33.4,29.59,SSE,158,0.0,0.0,90,0.00,,,0.00,WUHU216HW,2014-11-23 00:01:00,
2014-11-22 18:06:00,36.3,33.6,29.59,SE,135,0.0,0.0,90,0.00,,,0.00,WUHU216HW,2014-11-23 00:06:00,
2014-11-22 18:11:00,36.3,33.6,29.59,SE,135,0.0,0.0,90,0.00,,,0.00,WUHU216HW,2014-11-23 00:11:00,
2014-11-22 18:16:00,36.3,33.6,29.58,SE,135,0.0,0.0,90,0.00,,,0.00,WUHU216HW,2014-11-23 00:16:00,
2014-11-22 18:21:00,36.5,33.8,29.59,SSE,158,0.0,0.0,90,0.00,,,0.00,WUHU216HW,2014-11-23 00:21:00,
2014-11-22 18:26:00,36.5,33.8,29.59,ESE,113,0.0,0.0,90,0.00,,,0.00,WUHU216HW,2014-11-23 00:26:00,
2014-11-22 18:31:00,36.6,33.9,29.59,SSE,158,0.0,0.0,90,0.00,,,0.00,WUHU216HW,2014-11-23 00:31:00,
2014-11-22 18:36:00,36.6,33.9,29.59,SE,135,0.0,0.0,90,0.00,,,0.00,WUHU216HW,2014-11-23 00:36:00,
2014-11-22 18:41:00,36.6,33.9,29.59,SE,135,0.0,0.0,90,0.00,,,0.00,WUHU216HW,2014-11-23 00:41:00,
2014-11-22 18:46:00,36.8,34.1,29.58,SE,135,0.0,0.0,90,0.00,,,0.00,WUHU216HW,2014-11-23 00:46:00,
2014-11-22 18:51:00,37.0,34.3,29.58,SE,135,0.0,0.0,90,0.00,,,0.00,WUHU216HW,2014-11-23 00:51:00,
2014-11-22 18:56:00,37.0,34.3,29.59,SSE,158,0.0,0.0,90,0.00,,,0.00,WUHU216HW,2014-11-23 00:56:00,
2014-11-22 19:01:00,37.2,34.5,29.58,SSE,158,0.0,0.0,90,0.00,,,0.00,WUHU216HW,2014-11-23 01:01:00,
2014-11-22 19:06:00,37.2,34.7,29.58,SE,135,0.0,0.0,91,0.00,,,0.00,WUHU216HW,2014-11-23 01:06:00,
2014-11-22 19:11:00,37.2,34.7,29.58,SSE,158,0.0,0.0,91,0.00,,,0.00,WUHU216HW,2014-11-23 01:11:00,
2014-11-22 19:16:00,37.2,34.7,29.57,SSE,158,0.0,0.0,91,0.00,,,0.00,WUHU216HW,2014-11-23 01:16:00,
2014-11-22 19:21:00,37.4,34.9,29.57,SSE,158,0.0,0.0,91,0.00,,,0.00,WUHU216HW,2014-11-23 01:21:00,
2014-11-22 19:26:00,37.5,35.1,29.57,SE,135,0.0,0.0,91,0.00,,,0.00,WUHU216HW,2014-11-23 01:26:00,
2014-11-22 19:31:00,37.5,35.1,29.57,SSE,158,0.0,0.0,91,0.00,,,0.00,WUHU216HW,2014-11-23 01:31:00,
2014-11-22 19:36:00,37.5,35.1,29.57,SSE,158,0.0,0.0,91,0.00,,,0.00,WUHU216HW,2014-11-23 01:36:00,
2014-11-22 19:41:00,37.7,35.3,29.57,SSE,158,0.0,0.0,91,0.00,,,0.00,WUHU216HW,2014-11-23 01:41:00,
2014-11-22 19:46:00,37.7,35.3,29.56,SSE,158,0.0,0.0,91,0.00,,,0.00,WUHU216HW,2014-11-23 01:46:00,
2014-11-22 19:51:00,37.7,35.3,29.56,SE,135,0.0,0.0,91,0.00,,,0.00,WUHU216HW,2014-11-23 01:51:00,
2014-11-22 19:56:00,37.9,35.5,29.56,SSE,158,0.0,0.0,91,0.00,,,0.00,WUHU216HW,2014-11-23 01:56:00,
2014-11-22 20:01:00,37.9,35.5,29.56,SSE,158,0.0,0.0,91,0.00,,,0.00,WUHU216HW,2014-11-23 02:01:00,
2014-11-22 20:06:00,38.1,35.6,29.56,SSE,158,0.0,0.0,91,0.00,,,0.00,WUHU216HW,2014-11-23 02:06:00,
2014-11-22 20:11:00,38.3,35.8,29.56,SSE,158,0.0,0.0,91,0.00,,,0.00,WUHU216HW,2014-11-23 02:11:00,
2014-11-22 20:16:00,38.4,36.0,29.56,SSE,158,0.0,0.0,91,0.00,,,0.00,WUHU216HW,2014-11-23 02:16:00,
2014-11-22 20:21:00,38.8,36.4,29.56,SE,135,0.0,0.0,91,0.00,,,0.00,WUHU216HW,2014-11-23 02:21:00,